Archival Weather

Chicago/Rockford Intl

Rockford, Illinois (KRFD)

Report from: Friday, February 3, 2023 12:54 AM CST
Current time: Tuesday, June 25, 2024 4:50 AM CDT

Current weather – Weather history – Daily summaries
Weather forecast

Temperature-14.4°C (6.1°F)
Wind chill-26.0°C (-14.8°F)
Dew point-24.4°C (-11.9°F)
Winds 19 kts (9.8 m/s, 21.9 mph) North (350°)
Wind gusts 25 kts (12.9 m/s, 28.8 mph)
Visibility10 mi. (16.1 km)
Clouds Sky clear
Altimeter30.47 in.Hg (1032 mB)
Relative humidity42 %
Density altitude-4,379 ft. (-1,335 m)
Sea-level pressure103.3 kPa (1033 mB, 30.51 in.Hg)
Remarks Automated weather observing station with precipitation discriminator
Flight conditions Visual Meteorological Conditions
Raw dataKRFD 030654Z 35019G25KT 10SM CLR M14/M24 A3047 RMK AO2 SLP332 T11441244
An unhandled exception has occurred. See browser dev tools for details. Reload 🗙